Time;durP1;ratioP1;P1;durP2;ratioP2;P2;SDS_P1;SDS_P2;PMS_P1;PMS_P2;Temp;Humidity;BMP_temperature;BMP_pressure;BME280_temperature;BME280_humidity;BME280_pressure;Samples;Min_cycle;Max_cycle;Signal;HPM_P1;HPM_P2
2024/01/31 00:01:45;;;;;;;19.83;10.77;;;7.80;95.50;;;;;;5043933;28;20399;-76
2024/01/31 00:04:10;;;;;;;18.08;9.15;;;7.80;95.40;;;;;;5037474;28;20018;-76
2024/01/31 00:06:36;;;;;;;18.42;9.05;;;7.70;95.50;;;;;;5038642;28;20059;-75
2024/01/31 00:09:03;;;;;;;11.98;8.02;;;7.70;95.50;;;;;;5025864;28;20025;-76
2024/01/31 00:11:29;;;;;;;14.50;9.00;;;7.70;95.50;;;;;;5035994;28;20029;-75
2024/01/31 00:13:58;;;;;;;12.18;7.03;;;7.60;95.60;;;;;;5043410;28;20051;-76
2024/01/31 00:16:24;;;;;;;13.38;6.82;;;7.60;95.60;;;;;;5029444;28;20025;-75
2024/01/31 00:18:50;;;;;;;13.65;5.78;;;7.60;95.70;;;;;;5041996;28;20036;-75
2024/01/31 00:21:19;;;;;;;17.08;7.18;;;7.60;95.80;;;;;;5041225;28;20112;-75
2024/01/31 00:23:46;;;;;;;11.40;6.10;;;7.60;95.80;;;;;;5031755;28;20014;-75
2024/01/31 00:26:12;;;;;;;14.45;5.82;;;7.60;95.80;;;;;;5049404;28;20060;-75
2024/01/31 00:28:38;;;;;;;13.85;5.72;;;7.60;95.80;;;;;;5044091;28;20445;-75
2024/01/31 00:31:04;;;;;;;14.30;6.20;;;7.60;95.90;;;;;;5042776;28;20078;-75
2024/01/31 00:33:30;;;;;;;13.98;6.30;;;7.50;95.90;;;;;;5039751;28;20022;-76
2024/01/31 00:35:56;;;;;;;15.52;6.75;;;7.50;96.00;;;;;;5026533;28;20129;-79
2024/01/31 00:38:22;;;;;;;11.52;7.05;;;7.60;96.00;;;;;;5048172;28;20035;-77
2024/01/31 00:40:47;;;;;;;13.05;6.85;;;7.60;96.00;;;;;;5033896;28;20029;-75
2024/01/31 00:43:13;;;;;;;12.75;6.32;;;7.50;96.10;;;;;;5038146;28;20028;-75
2024/01/31 00:45:39;;;;;;;13.27;6.40;;;7.50;96.10;;;;;;5041962;28;20044;-76
2024/01/31 00:48:04;;;;;;;13.00;6.50;;;7.40;96.10;;;;;;5041504;28;20025;-76
2024/01/31 00:50:31;;;;;;;10.57;5.50;;;7.40;96.30;;;;;;5026997;28;20037;-76
2024/01/31 00:52:57;;;;;;;13.77;6.15;;;7.40;96.50;;;;;;5040217;28;20017;-76
2024/01/31 00:55:22;;;;;;;12.75;6.00;;;7.30;96.50;;;;;;5030001;28;20378;-76
2024/01/31 00:57:49;;;;;;;11.90;6.53;;;7.30;96.60;;;;;;5038087;28;20125;-75
2024/01/31 01:00:15;;;;;;;14.73;6.80;;;7.30;96.60;;;;;;5039455;28;20041;-77
2024/01/31 01:02:41;;;;;;;14.65;6.82;;;7.20;96.70;;;;;;5037636;28;20024;-75
2024/01/31 01:05:11;;;;;;;12.45;6.47;;;7.20;96.70;;;;;;5036189;28;20033;-76
2024/01/31 01:07:40;;;;;;;12.50;7.07;;;7.20;96.80;;;;;;5032726;28;20025;-76
2024/01/31 01:10:11;;;;;;;14.85;6.50;;;7.10;96.80;;;;;;5033870;28;20106;-75
2024/01/31 01:12:37;;;;;;;9.80;6.55;;;7.10;96.80;;;;;;5037423;28;20017;-80
2024/01/31 01:15:04;;;;;;;14.52;7.07;;;7.10;97.10;;;;;;5034477;28;20034;-76
2024/01/31 01:17:29;;;;;;;14.45;7.03;;;7.10;97.20;;;;;;5036543;28;20450;-76
2024/01/31 01:19:55;;;;;;;15.27;6.10;;;7.10;97.30;;;;;;5025715;28;20430;-76
2024/01/31 01:22:21;;;;;;;16.42;6.25;;;7.10;97.30;;;;;;5034384;28;20036;-75
2024/01/31 01:24:47;;;;;;;14.77;6.80;;;7.10;97.40;;;;;;5033056;28;20474;-75
2024/01/31 01:27:12;;;;;;;10.98;5.95;;;7.20;97.40;;;;;;5036094;28;20096;-75
2024/01/31 01:29:38;;;;;;;12.35;6.75;;;7.20;97.40;;;;;;5046501;28;20033;-75
2024/01/31 01:32:04;;;;;;;14.88;6.60;;;7.20;97.40;;;;;;5036747;28;20473;-75
2024/01/31 01:34:30;;;;;;;15.38;6.70;;;7.20;97.40;;;;;;5031322;28;20504;-77
2024/01/31 01:36:55;;;;;;;11.75;6.30;;;7.20;97.40;;;;;;5040438;28;20091;-76
2024/01/31 01:39:21;;;;;;;12.43;5.90;;;7.20;97.40;;;;;;5034491;28;20099;-81
2024/01/31 01:41:50;;;;;;;15.52;5.55;;;7.20;97.40;;;;;;5031790;28;20017;-77
2024/01/31 01:44:16;;;;;;;10.95;5.05;;;7.20;97.50;;;;;;5038562;28;20068;-76
2024/01/31 01:46:44;;;;;;;12.88;5.97;;;7.30;97.50;;;;;;5041262;28;20155;-76
2024/01/31 01:49:13;;;;;;;14.00;5.95;;;7.30;97.50;;;;;;5036048;28;20030;-76
2024/01/31 01:51:40;;;;;;;11.48;6.22;;;7.30;97.50;;;;;;5038298;28;20021;-76
2024/01/31 01:54:12;;;;;;;13.18;6.38;;;7.30;97.50;;;;;;5028170;28;20072;-76
2024/01/31 01:56:43;;;;;;;13.73;6.97;;;7.40;97.60;;;;;;5035552;28;20095;-76
2024/01/31 01:59:10;;;;;;;13.63;5.93;;;7.40;97.50;;;;;;5040694;28;20029;-76
2024/01/31 02:01:37;;;;;;;11.35;5.45;;;7.40;97.50;;;;;;5030639;28;20065;-76
2024/01/31 02:04:05;;;;;;;10.50;5.55;;;7.40;97.50;;;;;;5033869;28;20028;-76
2024/01/31 02:06:31;;;;;;;10.65;5.07;;;7.40;97.50;;;;;;5037840;28;20476;-76
2024/01/31 02:08:57;;;;;;;13.15;5.28;;;7.40;97.50;;;;;;5039753;28;20029;-76
2024/01/31 02:11:24;;;;;;;9.93;5.20;;;7.40;97.50;;;;;;5046496;28;20025;-76
2024/01/31 02:13:50;;;;;;;12.93;5.10;;;7.40;97.50;;;;;;5053432;27;20441;-76
2024/01/31 02:16:15;;;;;;;16.60;5.07;;;7.50;97.50;;;;;;5032351;28;20044;-76
2024/01/31 02:18:41;;;;;;;11.95;4.75;;;7.40;97.40;;;;;;5039327;28;20104;-76
2024/01/31 02:21:07;;;;;;;11.30;4.20;;;7.40;97.40;;;;;;5039536;28;20112;-79
2024/01/31 02:23:33;;;;;;;9.43;4.53;;;7.50;97.30;;;;;;5039354;28;20021;-76
2024/01/31 02:25:59;;;;;;;11.50;4.68;;;7.50;97.30;;;;;;5036038;28;20032;-76
2024/01/31 02:28:25;;;;;;;12.93;4.40;;;7.50;97.10;;;;;;5034232;28;20022;-76
2024/01/31 02:30:51;;;;;;;9.50;3.90;;;7.40;97.00;;;;;;5037515;28;20029;-76
2024/01/31 02:33:17;;;;;;;10.05;4.50;;;7.40;97.00;;;;;;5034637;28;20028;-76
2024/01/31 02:35:43;;;;;;;10.65;3.92;;;7.40;96.90;;;;;;5037051;28;20056;-77
2024/01/31 02:38:11;;;;;;;12.45;4.45;;;7.40;96.90;;;;;;5035768;28;20762;-76
2024/01/31 02:40:36;;;;;;;9.57;3.90;;;7.40;96.90;;;;;;5028793;28;20103;-75
2024/01/31 02:43:02;;;;;;;10.32;4.03;;;7.40;96.90;;;;;;5036508;28;20113;-77
2024/01/31 02:45:28;;;;;;;9.02;4.00;;;7.40;96.90;;;;;;5043915;28;20029;-76
2024/01/31 02:47:54;;;;;;;9.23;4.15;;;7.50;96.90;;;;;;5039120;28;20024;-76
2024/01/31 02:50:20;;;;;;;10.98;4.15;;;7.50;96.90;;;;;;5029104;28;20177;-76
2024/01/31 02:52:46;;;;;;;10.55;4.40;;;7.40;96.90;;;;;;5045756;28;20020;-76
2024/01/31 02:55:11;;;;;;;10.20;3.80;;;7.40;96.90;;;;;;5039536;28;20047;-76
2024/01/31 02:57:39;;;;;;;11.52;4.78;;;7.40;96.80;;;;;;5036005;28;20017;-79
2024/01/31 03:00:06;;;;;;;10.57;3.65;;;7.40;96.80;;;;;;5040921;28;20087;-76
2024/01/31 03:02:32;;;;;;;10.70;4.00;;;7.40;96.80;;;;;;5036487;28;20112;-76
2024/01/31 03:04:58;;;;;;;8.32;3.45;;;7.40;96.80;;;;;;5035506;28;20090;-76
2024/01/31 03:07:24;;;;;;;10.00;4.35;;;7.40;96.80;;;;;;5032817;28;20017;-75
2024/01/31 03:09:49;;;;;;;8.40;3.92;;;7.40;96.90;;;;;;5036047;28;20029;-75
2024/01/31 03:12:15;;;;;;;12.05;4.55;;;7.40;96.90;;;;;;5033314;28;20036;-76
2024/01/31 03:14:42;;;;;;;9.18;3.83;;;7.40;96.90;;;;;;5040909;28;20399;-76
2024/01/31 03:17:08;;;;;;;10.40;3.75;;;7.40;96.90;;;;;;5042813;28;20019;-76
2024/01/31 03:19:35;;;;;;;13.52;3.92;;;7.40;96.80;;;;;;5041339;28;20029;-76
2024/01/31 03:22:01;;;;;;;11.93;4.28;;;7.40;96.80;;;;;;5031244;28;20017;-76
2024/01/31 03:24:28;;;;;;;9.88;3.75;;;7.40;96.80;;;;;;5027662;28;20029;-76
2024/01/31 03:26:53;;;;;;;9.93;4.18;;;7.40;96.70;;;;;;5040463;28;20015;-76
2024/01/31 03:29:19;;;;;;;13.70;4.47;;;7.30;96.70;;;;;;5046131;27;20119;-75
2024/01/31 03:31:46;;;;;;;12.00;4.97;;;7.40;96.70;;;;;;5031853;28;20021;-75
2024/01/31 03:34:12;;;;;;;14.48;5.20;;;7.40;96.70;;;;;;5040274;28;20457;-75
2024/01/31 03:36:38;;;;;;;13.40;4.75;;;7.40;96.60;;;;;;5030724;28;20099;-75
2024/01/31 03:39:04;;;;;;;13.70;5.18;;;7.30;96.50;;;;;;5035814;28;20122;-75
2024/01/31 03:41:29;;;;;;;16.52;6.28;;;7.30;96.50;;;;;;5031281;28;20413;-76
2024/01/31 03:43:56;;;;;;;15.15;6.13;;;7.30;96.50;;;;;;5026565;28;20033;-77
2024/01/31 03:46:22;;;;;;;13.85;6.07;;;7.30;96.50;;;;;;5040162;28;20408;-75
2024/01/31 03:48:48;;;;;;;14.75;6.10;;;7.40;96.50;;;;;;5027205;28;20017;-82
2024/01/31 03:51:20;;;;;;;11.95;5.60;;;7.30;96.50;;;;;;5035936;28;20091;-75
2024/01/31 03:53:46;;;;;;;13.85;6.72;;;7.30;96.50;;;;;;5034860;28;20442;-76
2024/01/31 03:56:13;;;;;;;18.83;8.50;;;7.40;96.60;;;;;;5047503;28;20021;-79
2024/01/31 03:58:39;;;;;;;16.88;8.52;;;7.40;96.50;;;;;;5032251;28;20380;-76
2024/01/31 04:01:06;;;;;;;14.35;7.60;;;7.40;96.50;;;;;;5036259;28;20053;-76
2024/01/31 04:03:32;;;;;;;17.80;8.68;;;7.40;96.50;;;;;;5040728;28;20450;-76
2024/01/31 04:05:58;;;;;;;14.77;7.78;;;7.40;96.50;;;;;;5039418;28;20029;-75
2024/01/31 04:08:24;;;;;;;20.25;10.15;;;7.40;96.50;;;;;;5034853;28;20466;-78
2024/01/31 04:10:52;;;;;;;17.85;9.18;;;7.40;96.60;;;;;;5045031;28;20039;-78
2024/01/31 04:13:18;;;;;;;15.10;9.70;;;7.30;96.50;;;;;;5045440;28;20021;-75
2024/01/31 04:15:44;;;;;;;17.95;10.20;;;7.40;96.50;;;;;;5034874;28;20041;-79
2024/01/31 04:18:10;;;;;;;19.83;12.30;;;7.40;96.50;;;;;;5035861;28;20025;-76
2024/01/31 04:20:38;;;;;;;22.65;11.93;;;7.40;96.50;;;;;;5025155;28;20099;-76
2024/01/31 04:23:05;;;;;;;19.75;11.82;;;7.40;96.50;;;;;;5040239;28;20020;-76
2024/01/31 04:25:30;;;;;;;25.63;14.10;;;7.40;96.50;;;;;;5046160;28;20032;-76
2024/01/31 04:27:56;;;;;;;23.75;14.40;;;7.40;96.50;;;;;;5045290;28;20450;-75
2024/01/31 04:30:22;;;;;;;25.40;14.55;;;7.40;96.50;;;;;;5035967;28;20183;-75
2024/01/31 04:32:48;;;;;;;22.73;14.45;;;7.40;96.50;;;;;;5036948;28;20424;-78
2024/01/31 04:35:13;;;;;;;27.23;16.30;;;7.50;96.50;;;;;;5030554;28;20061;-76
2024/01/31 04:37:39;;;;;;;33.53;18.05;;;7.50;96.50;;;;;;5043193;28;20016;-76
2024/01/31 04:40:05;;;;;;;31.92;19.15;;;7.50;96.50;;;;;;5040698;28;20029;-76
2024/01/31 04:42:31;;;;;;;33.75;20.75;;;7.40;96.50;;;;;;5040032;28;20056;-76
2024/01/31 04:44:57;;;;;;;33.95;22.50;;;7.50;96.50;;;;;;5036564;28;20059;-76
2024/01/31 04:47:25;;;;;;;37.25;22.92;;;7.40;96.50;;;;;;5038871;28;20223;-75
2024/01/31 04:49:52;;;;;;;39.17;22.63;;;7.50;96.60;;;;;;5043758;28;20033;-77
2024/01/31 04:52:17;;;;;;;41.40;24.65;;;7.40;96.60;;;;;;5038596;28;20111;-76
2024/01/31 04:54:43;;;;;;;42.65;25.52;;;7.50;96.60;;;;;;5029171;28;20075;-77
2024/01/31 04:57:09;;;;;;;43.42;26.65;;;7.50;96.60;;;;;;5033500;28;20037;-76
2024/01/31 04:59:38;;;;;;;46.90;26.83;;;7.50;96.60;;;;;;5043855;28;20119;-76
2024/01/31 05:02:05;;;;;;;45.55;27.98;;;7.50;96.50;;;;;;5040911;28;20465;-77
2024/01/31 05:04:30;;;;;;;49.33;27.20;;;7.50;96.60;;;;;;5035502;28;20059;-77
2024/01/31 05:06:56;;;;;;;40.38;26.23;;;7.50;96.60;;;;;;5032157;28;20021;-76
2024/01/31 05:09:22;;;;;;;46.85;28.83;;;7.50;96.60;;;;;;5029998;28;20029;-76
2024/01/31 05:11:48;;;;;;;48.03;28.92;;;7.50;96.60;;;;;;5042750;28;20017;-76
2024/01/31 05:14:14;;;;;;;49.75;30.17;;;7.50;96.60;;;;;;5031965;28;20041;-77
2024/01/31 05:16:42;;;;;;;46.65;30.20;;;7.50;96.60;;;;;;5037913;28;20338;-77
2024/01/31 05:19:08;;;;;;;46.40;29.27;;;7.50;96.60;;;;;;5032635;28;20504;-77
2024/01/31 05:21:34;;;;;;;50.53;31.52;;;7.50;96.70;;;;;;5047427;28;20017;-77
2024/01/31 05:24:00;;;;;;;49.63;32.50;;;7.50;96.70;;;;;;5041378;28;20029;-77
2024/01/31 05:26:26;;;;;;;50.00;31.08;;;7.50;96.60;;;;;;5036039;28;20025;-79
2024/01/31 05:28:52;;;;;;;51.20;32.83;;;7.50;96.60;;;;;;5035828;28;20408;-77
2024/01/31 05:31:17;;;;;;;57.05;34.00;;;7.50;96.60;;;;;;5047072;28;20024;-81
2024/01/31 05:33:43;;;;;;;53.15;33.63;;;7.50;96.70;;;;;;5040188;28;20125;-81
2024/01/31 05:36:09;;;;;;;52.03;34.30;;;7.50;96.70;;;;;;5037724;28;20061;-77
2024/01/31 05:38:35;;;;;;;49.35;31.48;;;7.50;96.70;;;;;;5040099;28;20036;-76
2024/01/31 05:41:00;;;;;;;55.30;33.63;;;7.50;96.70;;;;;;5043039;28;20147;-77
2024/01/31 05:43:26;;;;;;;57.60;34.53;;;7.50;96.70;;;;;;5032930;28;20024;-76
2024/01/31 05:45:52;;;;;;;49.47;33.40;;;7.40;96.70;;;;;;5041079;28;20025;-77
2024/01/31 05:48:18;;;;;;;57.55;35.55;;;7.50;96.80;;;;;;5039006;28;20017;-77
2024/01/31 05:50:43;;;;;;;57.55;34.55;;;7.50;96.80;;;;;;5033963;28;20033;-77
2024/01/31 05:53:09;;;;;;;54.63;35.00;;;7.50;96.80;;;;;;5044838;28;20075;-77
2024/01/31 05:55:35;;;;;;;57.25;36.22;;;7.50;96.80;;;;;;5043840;28;20262;-76
2024/01/31 05:58:01;;;;;;;55.47;36.30;;;7.50;96.80;;;;;;5039065;28;20029;-77
2024/01/31 06:00:26;;;;;;;53.00;36.00;;;7.50;96.80;;;;;;5041560;28;20426;-76
2024/01/31 06:02:52;;;;;;;54.30;34.80;;;7.50;96.80;;;;;;5037681;28;20029;-76
2024/01/31 06:05:18;;;;;;;50.15;34.35;;;7.50;96.80;;;;;;5036541;28;20053;-76
2024/01/31 06:07:44;;;;;;;53.08;35.28;;;7.50;96.80;;;;;;5058702;28;20013;-78
2024/01/31 06:10:09;;;;;;;54.05;35.78;;;7.40;96.80;;;;;;5059063;28;20042;-79
2024/01/31 06:12:35;;;;;;;51.80;36.58;;;7.40;96.80;;;;;;5061488;28;20025;-79
2024/01/31 06:15:01;;;;;;;48.75;34.28;;;7.40;96.80;;;;;;5064068;28;20198;-76
2024/01/31 06:17:27;;;;;;;43.92;32.70;;;7.40;96.90;;;;;;5044008;28;20021;-78
2024/01/31 06:19:52;;;;;;;51.25;35.00;;;7.40;96.80;;;;;;5040636;28;20033;-76
2024/01/31 06:22:18;;;;;;;53.53;34.78;;;7.40;96.80;;;;;;5038128;28;20474;-76
2024/01/31 06:24:44;;;;;;;53.08;36.03;;;7.40;96.80;;;;;;5037128;28;20029;-75
2024/01/31 06:27:09;;;;;;;49.67;34.65;;;7.40;96.80;;;;;;5055527;28;20092;-76
2024/01/31 06:29:38;;;;;;;49.53;34.28;;;7.40;96.80;;;;;;5047390;28;20132;-76
2024/01/31 06:32:05;;;;;;;45.20;31.52;;;7.40;96.80;;;;;;5050505;28;20045;-77
2024/01/31 06:34:30;;;;;;;47.35;32.10;;;7.40;96.80;;;;;;5047416;28;20054;-78
2024/01/31 06:36:56;;;;;;;48.88;31.77;;;7.40;96.80;;;;;;5051239;28;20033;-80
2024/01/31 06:39:22;;;;;;;44.08;30.58;;;7.40;96.70;;;;;;5066480;28;20028;-76
2024/01/31 06:41:48;;;;;;;44.78;31.45;;;7.40;96.80;;;;;;5052941;28;20049;-76
2024/01/31 06:44:13;;;;;;;48.08;31.92;;;7.40;96.70;;;;;;5024634;28;20029;-76
2024/01/31 06:46:39;;;;;;;53.90;35.92;;;7.40;96.70;;;;;;5040484;28;20116;-77
2024/01/31 06:49:05;;;;;;;51.17;33.33;;;7.40;96.70;;;;;;5032933;28;20485;-75
2024/01/31 06:51:31;;;;;;;49.35;32.88;;;7.40;96.60;;;;;;5037853;28;20035;-75
2024/01/31 06:53:59;;;;;;;41.40;30.98;;;7.40;96.70;;;;;;5031999;28;20028;-76
2024/01/31 06:56:24;;;;;;;43.75;30.13;;;7.40;96.70;;;;;;5035745;28;20032;-79
2024/01/31 06:58:51;;;;;;;42.42;28.65;;;7.40;96.60;;;;;;5030171;28;20342;-78
2024/01/31 07:01:18;;;;;;;36.05;26.75;;;7.30;96.50;;;;;;5036405;28;20571;-76
2024/01/31 07:03:46;;;;;;;41.42;29.65;;;7.30;96.40;;;;;;5041401;28;20448;-76
2024/01/31 07:06:12;;;;;;;39.47;30.23;;;7.30;96.40;;;;;;5040857;28;20108;-75
2024/01/31 07:08:39;;;;;;;43.35;28.85;;;7.30;96.40;;;;;;5031627;28;20143;-76
2024/01/31 07:11:08;;;;;;;38.40;28.10;;;7.40;96.50;;;;;;5041652;28;20031;-75
2024/01/31 07:13:39;;;;;;;38.50;27.60;;;7.30;96.40;;;;;;5033669;28;20592;-75
2024/01/31 07:16:09;;;;;;;33.00;24.98;;;7.30;96.50;;;;;;5033276;28;20044;-75
2024/01/31 07:18:44;;;;;;;36.78;27.00;;;7.40;96.50;;;;;;5050635;28;20108;-74
2024/01/31 07:21:11;;;;;;;37.67;26.63;;;7.40;96.40;;;;;;5035406;28;20013;-76
2024/01/31 07:23:37;;;;;;;41.55;28.73;;;7.40;96.30;;;;;;5029001;28;20017;-75
2024/01/31 07:26:03;;;;;;;36.97;26.10;;;7.40;96.30;;;;;;5040351;28;20025;-75
2024/01/31 07:28:38;;;;;;;35.28;25.83;;;7.40;96.20;;;;;;5046402;28;20074;-78
2024/01/31 07:31:06;;;;;;;36.97;24.88;;;7.40;96.20;;;;;;5037367;28;20036;-75
2024/01/31 07:33:34;;;;;;;34.58;24.52;;;7.40;96.10;;;;;;5034942;28;20044;-76
2024/01/31 07:35:59;;;;;;;34.45;24.25;;;7.40;96.10;;;;;;5029531;28;20056;-77
2024/01/31 07:38:25;;;;;;;34.25;25.20;;;7.40;96.10;;;;;;5037715;28;20021;-75
2024/01/31 07:40:51;;;;;;;37.53;25.92;;;7.40;96.10;;;;;;5050121;28;20021;-75
2024/01/31 07:43:17;;;;;;;36.28;24.35;;;7.40;96.00;;;;;;5037374;28;20020;-76
2024/01/31 07:45:43;;;;;;;38.03;25.02;;;7.40;96.00;;;;;;5042977;28;20578;-76
2024/01/31 07:48:08;;;;;;;32.10;23.95;;;7.40;95.90;;;;;;5040451;28;20346;-76
2024/01/31 07:50:34;;;;;;;31.92;22.38;;;7.40;95.90;;;;;;5035874;28;20043;-77
2024/01/31 07:53:00;;;;;;;29.13;21.65;;;7.40;95.90;;;;;;5033220;28;20454;-76
2024/01/31 07:55:26;;;;;;;30.27;21.13;;;7.40;95.90;;;;;;5026251;28;20044;-76
2024/01/31 07:57:51;;;;;;;25.77;19.40;;;7.40;95.80;;;;;;5043453;28;20033;-76
2024/01/31 08:00:18;;;;;;;25.65;19.73;;;7.40;95.60;;;;;;5030655;28;20120;-76
2024/01/31 08:02:44;;;;;;;24.80;18.48;;;7.40;95.50;;;;;;5039883;28;20096;-76
2024/01/31 08:05:10;;;;;;;24.70;18.88;;;7.40;95.40;;;;;;5033311;28;20111;-76
2024/01/31 08:07:36;;;;;;;27.13;19.95;;;7.40;95.40;;;;;;5042330;28;20040;-76
2024/01/31 08:10:02;;;;;;;26.35;19.52;;;7.50;95.30;;;;;;5037531;28;20436;-76
2024/01/31 08:12:27;;;;;;;25.20;17.48;;;7.40;95.30;;;;;;5037838;28;20072;-76
2024/01/31 08:14:53;;;;;;;22.38;17.10;;;7.50;95.10;;;;;;5027626;28;20158;-75
2024/01/31 08:17:19;;;;;;;24.58;17.77;;;7.50;94.90;;;;;;5032434;28;20109;-75
2024/01/31 08:19:45;;;;;;;26.63;18.10;;;7.50;94.90;;;;;;5032656;28;20103;-76
2024/01/31 08:22:10;;;;;;;20.92;16.52;;;7.60;94.70;;;;;;5040170;28;20021;-76
2024/01/31 08:24:36;;;;;;;21.65;15.38;;;7.60;94.50;;;;;;5030103;28;20516;-75
2024/01/31 08:27:02;;;;;;;21.38;15.65;;;7.50;94.20;;;;;;5032918;28;20022;-74
2024/01/31 08:29:28;;;;;;;24.45;17.33;;;7.60;93.80;;;;;;5034451;28;20374;-75
2024/01/31 08:31:54;;;;;;;21.42;14.68;;;7.50;93.30;;;;;;5036173;28;20021;-75
2024/01/31 08:34:19;;;;;;;19.52;14.75;;;7.60;93.00;;;;;;5029429;28;20098;-75
2024/01/31 08:36:45;;;;;;;24.15;16.60;;;7.60;92.70;;;;;;5034246;28;20041;-75
2024/01/31 08:39:12;;;;;;;29.45;18.38;;;7.60;92.10;;;;;;5035459;28;20047;-75
2024/01/31 08:41:37;;;;;;;31.10;16.15;;;7.60;91.70;;;;;;5034022;28;20017;-75
2024/01/31 08:44:03;;;;;;;30.67;17.65;;;7.60;91.20;;;;;;5051029;28;20052;-75
2024/01/31 08:46:29;;;;;;;34.58;20.95;;;7.70;90.70;;;;;;5049322;28;20028;-75
2024/01/31 08:48:55;;;;;;;26.90;15.60;;;7.80;90.10;;;;;;5033656;28;20026;-75
2024/01/31 08:51:20;;;;;;;17.23;12.80;;;7.80;89.50;;;;;;5045020;28;20449;-75
2024/01/31 08:53:46;;;;;;;18.17;11.85;;;7.80;89.30;;;;;;5034401;28;20144;-76
2024/01/31 08:56:12;;;;;;;17.38;10.68;;;8.00;88.90;;;;;;5023872;28;20047;-75
2024/01/31 08:58:38;;;;;;;17.08;10.73;;;8.10;88.10;;;;;;5032384;28;20029;-75
2024/01/31 09:01:04;;;;;;;29.40;17.85;;;8.10;87.40;;;;;;5041996;28;20025;-75
2024/01/31 09:03:29;;;;;;;22.17;14.00;;;8.30;87.00;;;;;;5037991;28;20104;-75
2024/01/31 09:05:56;;;;;;;19.88;11.65;;;8.40;86.60;;;;;;5034190;28;20059;-76
2024/01/31 09:08:22;;;;;;;16.88;11.30;;;8.50;86.30;;;;;;5047774;28;20103;-75
2024/01/31 09:10:48;;;;;;;14.95;10.95;;;8.70;85.70;;;;;;5033079;28;20137;-75
2024/01/31 09:13:13;;;;;;;15.77;9.60;;;8.90;84.80;;;;;;5046764;28;20479;-75
2024/01/31 09:15:39;;;;;;;13.15;8.18;;;9.00;83.50;;;;;;5050344;28;20056;-74
2024/01/31 09:18:05;;;;;;;13.27;7.80;;;9.10;83.50;;;;;;5041928;28;20021;-75
2024/01/31 09:20:31;;;;;;;19.73;13.30;;;9.20;82.10;;;;;;5037840;28;20040;-73
2024/01/31 09:22:57;;;;;;;14.80;9.25;;;9.50;81.90;;;;;;5029687;28;20358;-73
2024/01/31 09:25:23;;;;;;;13.63;8.93;;;9.60;81.10;;;;;;5028424;28;20052;-73
2024/01/31 09:27:49;;;;;;;14.88;9.07;;;9.70;80.10;;;;;;5043804;28;20338;-75
2024/01/31 09:30:15;;;;;;;12.63;6.82;;;9.80;79.20;;;;;;5036019;28;20033;-72
2024/01/31 09:32:40;;;;;;;11.00;6.00;;;9.90;78.90;;;;;;5046087;28;20032;-74
2024/01/31 09:35:06;;;;;;;13.15;7.15;;;10.00;78.30;;;;;;5041908;28;22591;-74
2024/01/31 09:37:32;;;;;;;11.90;5.38;;;10.10;77.60;;;;;;5046848;28;20100;-72
2024/01/31 09:40:02;;;;;;;10.13;5.13;;;10.20;76.80;;;;;;5036320;28;20105;-72
2024/01/31 09:42:27;;;;;;;8.35;4.30;;;10.20;76.40;;;;;;5037894;28;20025;-74
2024/01/31 09:44:58;;;;;;;8.00;4.10;;;10.20;75.60;;;;;;5040509;28;20179;-75
2024/01/31 09:47:28;;;;;;;12.73;5.10;;;10.30;75.10;;;;;;5039322;28;20053;-75
2024/01/31 09:49:57;;;;;;;10.20;5.03;;;10.20;75.00;;;;;;5034015;28;20040;-75
2024/01/31 09:52:29;;;;;;;12.20;4.75;;;10.10;74.70;;;;;;5030565;28;20036;-75
2024/01/31 09:55:00;;;;;;;15.38;4.72;;;10.10;74.50;;;;;;5024188;28;20127;-76
2024/01/31 09:57:27;;;;;;;9.77;4.07;;;10.00;73.90;;;;;;5039047;28;20037;-75
2024/01/31 09:59:56;;;;;;;7.13;3.30;;;9.80;74.20;;;;;;5035971;27;20026;-75
2024/01/31 10:02:22;;;;;;;10.48;4.50;;;9.90;74.60;;;;;;5040445;28;20013;-74
2024/01/31 10:04:49;;;;;;;8.98;4.00;;;9.90;74.60;;;;;;5022156;28;20490;-76
2024/01/31 10:07:25;;;;;;;9.95;4.00;;;10.00;74.70;;;;;;5037900;28;20032;-75
2024/01/31 10:09:55;;;;;;;8.80;3.50;;;10.00;74.70;;;;;;5038090;28;20033;-73
2024/01/31 10:12:22;;;;;;;12.73;3.85;;;10.00;74.30;;;;;;5039556;28;20017;-74
2024/01/31 10:14:51;;;;;;;9.50;3.20;;;10.00;74.20;;;;;;5036825;28;20032;-74
2024/01/31 10:17:20;;;;;;;11.05;3.70;;;10.00;74.20;;;;;;5034100;28;20037;-74
2024/01/31 10:19:46;;;;;;;10.18;3.40;;;10.10;74.10;;;;;;5031570;28;20021;-74
2024/01/31 10:22:12;;;;;;;8.13;3.28;;;10.30;74.20;;;;;;5035188;28;20546;-75
2024/01/31 10:24:45;;;;;;;7.68;3.20;;;10.30;73.60;;;;;;5030946;28;20159;-75
2024/01/31 10:27:11;;;;;;;7.88;3.05;;;10.30;73.70;;;;;;5041405;28;20032;-74
2024/01/31 10:29:40;;;;;;;19.33;4.40;;;10.40;73.50;;;;;;5027445;28;20017;-73
2024/01/31 10:32:06;;;;;;;10.15;3.40;;;10.50;71.80;;;;;;5042152;28;20043;-74
2024/01/31 10:34:34;;;;;;;8.55;2.95;;;10.40;72.40;;;;;;5038884;28;20063;-74
2024/01/31 10:37:01;;;;;;;8.77;3.33;;;10.50;72.30;;;;;;5031961;28;20041;-74
2024/01/31 10:39:28;;;;;;;9.52;3.40;;;10.60;72.20;;;;;;5037132;28;20366;-74
2024/01/31 10:41:55;;;;;;;8.98;3.33;;;10.50;71.50;;;;;;5038360;28;20009;-74
2024/01/31 10:44:21;;;;;;;11.32;3.80;;;10.50;71.80;;;;;;5033775;28;20050;-73
2024/01/31 10:46:47;;;;;;;10.05;3.13;;;10.50;72.00;;;;;;5036530;28;20458;-74
2024/01/31 10:49:16;;;;;;;12.98;3.55;;;10.50;71.70;;;;;;5040621;28;20040;-73
2024/01/31 10:51:48;;;;;;;9.32;3.30;;;10.50;71.60;;;;;;5028663;28;20389;-73
2024/01/31 10:54:17;;;;;;;9.70;3.63;;;10.40;70.70;;;;;;5043698;28;20033;-72
2024/01/31 10:56:45;;;;;;;10.40;3.55;;;10.40;70.90;;;;;;5027099;28;20037;-73
2024/01/31 10:59:12;;;;;;;9.20;3.15;;;10.20;70.90;;;;;;5034060;28;20083;-72
2024/01/31 11:01:37;;;;;;;9.50;3.25;;;10.30;71.20;;;;;;5030828;28;20029;-72
2024/01/31 11:04:07;;;;;;;10.10;3.35;;;10.40;71.40;;;;;;5032578;28;20022;-69
2024/01/31 11:06:40;;;;;;;10.05;2.78;;;10.30;71.20;;;;;;5030411;28;20029;-69
2024/01/31 11:09:06;;;;;;;11.38;3.00;;;10.20;71.20;;;;;;5036861;28;20478;-69
2024/01/31 11:11:33;;;;;;;10.27;3.03;;;10.10;70.90;;;;;;5040121;28;20025;-70
2024/01/31 11:14:09;;;;;;;8.98;2.75;;;10.10;71.30;;;;;;5039697;28;20025;-69
2024/01/31 11:16:35;;;;;;;9.95;3.67;;;9.90;71.80;;;;;;5036521;28;20075;-69
2024/01/31 11:19:05;;;;;;;8.25;2.88;;;9.90;71.90;;;;;;5028966;28;20033;-70
2024/01/31 11:21:39;;;;;;;10.90;2.67;;;9.90;71.80;;;;;;5037884;28;20021;-71
2024/01/31 11:24:05;;;;;;;9.55;3.15;;;10.00;71.80;;;;;;5030801;28;20040;-73
2024/01/31 11:26:35;;;;;;;12.55;3.28;;;10.10;71.70;;;;;;5041532;28;20046;-70
2024/01/31 11:29:02;;;;;;;12.85;3.05;;;10.00;71.30;;;;;;5034116;28;20466;-70
2024/01/31 11:31:29;;;;;;;11.20;2.67;;;9.90;72.30;;;;;;5029691;28;20025;-73
2024/01/31 11:33:57;;;;;;;10.95;2.92;;;9.80;72.70;;;;;;5036516;28;20380;-69
2024/01/31 11:36:23;;;;;;;9.63;2.63;;;9.60;72.60;;;;;;5035581;28;20052;-70
2024/01/31 11:38:50;;;;;;;9.27;2.70;;;9.50;73.30;;;;;;5034230;28;20017;-71
2024/01/31 11:41:15;;;;;;;11.77;2.95;;;9.50;74.40;;;;;;5037791;28;20025;-70
2024/01/31 11:43:41;;;;;;;9.95;2.63;;;9.40;74.00;;;;;;5035522;28;20032;-70
2024/01/31 11:46:07;;;;;;;10.27;2.90;;;9.40;74.10;;;;;;5037032;28;20373;-70
2024/01/31 11:48:33;;;;;;;12.45;3.10;;;9.60;74.60;;;;;;5029332;28;20029;-73
2024/01/31 11:50:58;;;;;;;14.27;3.00;;;9.60;74.20;;;;;;5030431;28;20021;-70
2024/01/31 11:53:24;;;;;;;13.60;2.90;;;9.60;73.70;;;;;;5033685;28;20480;-71
2024/01/31 11:55:51;;;;;;;15.60;3.30;;;9.70;72.90;;;;;;5035213;28;20040;-70
2024/01/31 11:58:20;;;;;;;13.23;3.13;;;9.70;73.00;;;;;;5027813;28;20351;-70
2024/01/31 12:00:45;;;;;;;12.32;3.28;;;9.80;73.80;;;;;;5032450;28;20112;-70
2024/01/31 12:03:12;;;;;;;11.05;2.60;;;9.90;73.80;;;;;;5030076;28;20366;-70
2024/01/31 12:05:37;;;;;;;13.40;3.53;;;9.80;73.00;;;;;;5035328;28;20386;-70
2024/01/31 12:08:04;;;;;;;10.40;3.20;;;9.80;73.10;;;;;;5035004;28;20017;-70
2024/01/31 12:10:29;;;;;;;10.43;2.92;;;9.60;72.20;;;;;;5027921;28;20030;-70
2024/01/31 12:12:59;;;;;;;8.95;2.67;;;9.80;72.90;;;;;;5035471;28;20120;-70
2024/01/31 12:15:25;;;;;;;15.82;3.50;;;9.70;71.20;;;;;;5027799;28;20033;-71
2024/01/31 12:17:51;;;;;;;7.03;3.20;;;9.70;72.10;;;;;;5048912;28;20029;-70
2024/01/31 12:20:17;;;;;;;8.13;3.42;;;9.70;71.50;;;;;;5049420;28;20033;-71
2024/01/31 12:22:44;;;;;;;17.33;3.53;;;9.50;72.20;;;;;;5043099;28;20020;-70
2024/01/31 12:25:11;;;;;;;9.52;3.28;;;9.60;72.40;;;;;;5038192;28;20044;-69
2024/01/31 12:27:36;;;;;;;8.25;3.20;;;9.70;72.90;;;;;;5044818;28;20017;-71
2024/01/31 12:30:04;;;;;;;10.57;3.67;;;9.60;72.00;;;;;;5037743;28;20339;-72
2024/01/31 12:32:30;;;;;;;14.30;4.47;;;9.60;73.10;;;;;;5037397;28;20204;-72
2024/01/31 12:34:56;;;;;;;9.18;3.63;;;9.90;73.30;;;;;;5037823;28;20103;-73
2024/01/31 12:37:22;;;;;;;8.85;3.65;;;9.90;73.20;;;;;;5041709;28;20117;-73
2024/01/31 12:39:48;;;;;;;10.13;3.28;;;10.00;71.90;;;;;;5040916;28;20127;-73